createdAt,value
2023-05-05T00:00:46.078Z,5.10
2023-05-05T00:02:48.944Z,5.30
2023-05-05T00:04:52.512Z,5.10
2023-05-05T00:06:57.184Z,5.23
2023-05-05T00:08:59.965Z,4.80
2023-05-05T00:11:02.773Z,5.73
2023-05-05T00:13:06.533Z,5.23
2023-05-05T00:15:10.177Z,5.53
2023-05-05T00:17:13.067Z,5.10
2023-05-05T00:19:16.002Z,5.50
2023-05-05T00:21:18.813Z,5.53
2023-05-05T00:23:22.938Z,5.10
2023-05-05T00:25:25.831Z,4.60
2023-05-05T00:27:28.618Z,5.67
2023-05-05T00:29:31.395Z,5.47
2023-05-05T00:31:34.260Z,5.73
2023-05-05T00:33:37.114Z,5.47
2023-05-05T00:35:39.910Z,4.83
2023-05-05T00:37:42.691Z,5.13
2023-05-05T00:39:46.827Z,5.10
2023-05-05T00:41:49.612Z,5.27
2023-05-05T00:43:52.456Z,5.67
2023-05-05T00:45:56.976Z,5.03
2023-05-05T00:48:00.465Z,5.87
2023-05-05T00:50:03.705Z,5.00
2023-05-05T00:52:06.638Z,4.37
2023-05-05T00:54:09.457Z,5.20
2023-05-05T00:56:13.652Z,5.60
2023-05-05T00:58:16.434Z,4.80
2023-05-05T01:00:19.215Z,4.40
2023-05-05T01:02:22.685Z,5.20
2023-05-05T01:04:26.110Z,5.30
2023-05-05T01:06:38.329Z,5.30
2023-05-05T01:08:46.254Z,5.40
2023-05-05T01:10:52.966Z,5.13
2023-05-05T01:13:03.392Z,5.10
2023-05-05T01:15:09.821Z,5.10
2023-05-05T01:17:17.075Z,5.33
2023-05-05T01:19:41.263Z,5.13
2023-05-05T01:21:46.401Z,5.50
2023-05-05T01:24:22.213Z,5.47
2023-05-05T01:26:33.068Z,6.00
2023-05-05T01:28:44.960Z,5.80
2023-05-05T01:30:58.732Z,5.60
2023-05-05T01:33:04.924Z,5.80
2023-05-05T01:35:11.206Z,5.40
2023-05-05T01:37:16.214Z,5.90
2023-05-05T01:39:19.075Z,6.00
2023-05-05T01:41:25.226Z,5.03
2023-05-05T01:43:28.343Z,5.70
2023-05-05T01:45:33.361Z,5.47
2023-05-05T01:47:36.279Z,6.00
2023-05-05T01:49:40.428Z,6.23
2023-05-05T01:51:43.262Z,5.80
2023-05-05T01:53:47.154Z,5.70
2023-05-05T01:55:49.973Z,6.23
2023-05-05T01:57:52.952Z,5.20
2023-05-05T01:59:55.756Z,5.77
2023-05-05T02:01:59.043Z,5.90
2023-05-05T02:04:02.134Z,5.40
2023-05-05T02:06:06.611Z,6.20
2023-05-05T02:08:09.761Z,6.20
2023-05-05T02:10:12.969Z,5.43
2023-05-05T02:12:15.790Z,5.77
2023-05-05T02:14:18.579Z,6.27
2023-05-05T02:16:21.409Z,6.20
2023-05-05T02:18:24.280Z,6.03
2023-05-05T02:20:27.041Z,6.20
2023-05-05T02:22:31.654Z,5.67
2023-05-05T02:24:34.530Z,5.53
2023-05-05T02:26:40.423Z,6.50
2023-05-05T02:28:46.111Z,6.20
2023-05-05T02:30:50.375Z,6.80
2023-05-05T02:32:56.134Z,6.47
2023-05-05T02:34:59.164Z,5.63
2023-05-05T02:37:02.212Z,6.20
2023-05-05T02:39:10.718Z,6.30
2023-05-05T02:41:14.826Z,7.20
2023-05-05T02:43:19.616Z,6.30
2023-05-05T02:45:23.168Z,6.37
2023-05-05T02:47:29.823Z,6.00
2023-05-05T02:49:32.595Z,6.10
2023-05-05T02:51:35.362Z,6.50
2023-05-05T02:53:38.103Z,5.40
2023-05-05T02:55:44.859Z,6.70
2023-05-05T02:57:49.680Z,6.63
2023-05-05T02:59:57.396Z,7.07
2023-05-05T03:02:04.327Z,6.10
2023-05-05T03:04:08.540Z,7.13
2023-05-05T03:06:14.707Z,6.17
2023-05-05T03:08:18.373Z,6.70
2023-05-05T03:10:22.262Z,6.07
2023-05-05T03:12:29.203Z,6.10
2023-05-05T03:14:36.944Z,5.57
2023-05-05T03:16:40.565Z,6.30
2023-05-05T03:18:43.508Z,6.50
2023-05-05T03:20:46.376Z,6.70
2023-05-05T03:22:49.184Z,6.13
2023-05-05T03:24:52.250Z,6.43
2023-05-05T03:26:55.035Z,5.77
2023-05-05T03:28:59.185Z,6.70
2023-05-05T03:31:01.932Z,6.80
2023-05-05T03:33:04.890Z,6.40
2023-05-05T03:35:08.245Z,6.93
2023-05-05T03:37:11.063Z,6.53
2023-05-05T03:39:13.840Z,6.20
2023-05-05T03:41:16.657Z,6.23
2023-05-05T03:43:19.609Z,6.60
2023-05-05T03:45:23.795Z,6.03
2023-05-05T03:47:26.642Z,6.80
2023-05-05T03:49:29.439Z,6.30
2023-05-05T03:51:32.242Z,6.57
2023-05-05T03:53:35.266Z,6.60
2023-05-05T03:55:38.103Z,7.00
2023-05-05T03:57:40.906Z,6.57
2023-05-05T03:59:43.655Z,5.97
2023-05-05T04:01:49.809Z,7.00
2023-05-05T04:03:52.657Z,6.63
2023-05-05T04:05:55.899Z,6.20
2023-05-05T04:07:58.708Z,6.27
2023-05-05T04:10:01.501Z,7.07
2023-05-05T04:12:04.693Z,6.60
2023-05-05T04:14:07.456Z,7.17
2023-05-05T04:16:10.284Z,7.10
2023-05-05T04:18:14.452Z,7.30
2023-05-05T04:20:17.435Z,7.80
2023-05-05T04:22:20.474Z,6.80
2023-05-05T04:24:24.902Z,6.70
2023-05-05T04:26:28.203Z,9.17
2023-05-05T04:28:31.009Z,7.07
2023-05-05T04:30:33.820Z,8.43
2023-05-05T04:32:36.642Z,7.80
2023-05-05T04:34:40.770Z,6.93
2023-05-05T04:36:43.596Z,6.43
2023-05-05T04:38:46.435Z,7.80
2023-05-05T04:40:49.185Z,6.70
2023-05-05T04:42:51.961Z,7.00
2023-05-05T04:44:54.934Z,6.80
2023-05-05T04:46:57.855Z,6.80
2023-05-05T04:49:00.759Z,6.30
2023-05-05T04:51:06.764Z,7.53
2023-05-05T04:53:09.683Z,6.63
2023-05-05T04:55:12.556Z,6.40
2023-05-05T04:57:15.324Z,6.97
2023-05-05T04:59:18.426Z,7.63
2023-05-05T05:01:21.249Z,6.43
2023-05-05T05:03:24.234Z,6.13
2023-05-05T05:05:27.176Z,6.50
2023-05-05T05:07:31.330Z,6.60
2023-05-05T05:09:34.150Z,6.40
2023-05-05T05:11:36.945Z,6.47
2023-05-05T05:13:39.934Z,7.07
2023-05-05T05:15:43.116Z,6.70
2023-05-05T05:17:45.912Z,6.90
2023-05-05T05:19:48.710Z,7.43
2023-05-05T05:21:51.787Z,7.17
2023-05-05T05:23:57.956Z,5.90
2023-05-05T05:26:00.900Z,6.40
2023-05-05T05:28:10.164Z,7.10
2023-05-05T05:30:14.283Z,7.13
2023-05-05T05:32:17.085Z,6.70
2023-05-05T05:34:19.885Z,6.50
2023-05-05T05:36:22.653Z,7.20
2023-05-05T05:38:25.443Z,9.47
2023-05-05T05:40:29.562Z,7.83
2023-05-05T05:42:32.398Z,7.27
2023-05-05T05:44:35.187Z,7.30
2023-05-05T05:46:38.118Z,7.70
2023-05-05T05:48:41.011Z,7.30
2023-05-05T05:50:43.781Z,7.50
2023-05-05T05:52:46.575Z,7.03
2023-05-05T05:54:49.509Z,6.70
2023-05-05T05:56:53.666Z,7.83
2023-05-05T05:58:56.599Z,7.10
2023-05-05T06:01:00.306Z,7.40
2023-05-05T06:03:03.236Z,7.90
2023-05-05T06:05:06.803Z,19.83
2023-05-05T06:07:09.584Z,7.90
2023-05-05T06:09:12.329Z,8.10
2023-05-05T06:11:15.112Z,7.90
2023-05-05T06:13:19.414Z,7.77
2023-05-05T06:15:22.249Z,7.20
2023-05-05T06:17:25.049Z,6.13
2023-05-05T06:19:27.804Z,5.93
2023-05-05T06:21:30.851Z,8.50
2023-05-05T06:23:33.678Z,7.27
2023-05-05T06:25:36.906Z,6.77
2023-05-05T06:27:39.665Z,7.53
2023-05-05T06:29:43.761Z,6.87
2023-05-05T06:31:47.028Z,8.03
2023-05-05T06:33:49.877Z,8.17
2023-05-05T06:35:53.065Z,7.67
2023-05-05T06:37:55.826Z,7.23
2023-05-05T06:39:58.598Z,8.07
2023-05-05T06:42:02.036Z,6.63
2023-05-05T06:44:05.606Z,8.27
2023-05-05T06:46:09.696Z,7.47
2023-05-05T06:48:12.725Z,7.60
2023-05-05T06:50:15.680Z,8.00
2023-05-05T06:52:18.457Z,7.97
2023-05-05T06:54:21.235Z,6.70
2023-05-05T06:56:24.078Z,8.03
2023-05-05T06:58:27.102Z,7.53
2023-05-05T07:00:29.962Z,7.63
2023-05-05T07:02:34.490Z,7.40
2023-05-05T07:04:37.347Z,7.77
2023-05-05T07:06:40.169Z,7.40
2023-05-05T07:08:42.920Z,7.37
2023-05-05T07:10:47.112Z,7.47
2023-05-05T07:12:49.988Z,7.53
2023-05-05T07:14:52.773Z,7.33
2023-05-05T07:16:55.661Z,7.83
2023-05-05T07:19:00.800Z,7.20
2023-05-05T07:21:05.812Z,7.40
2023-05-05T07:23:08.575Z,6.63
2023-05-05T07:25:12.265Z,7.60
2023-05-05T07:27:15.070Z,7.50
2023-05-05T07:29:17.845Z,8.03
2023-05-05T07:31:22.004Z,7.20
2023-05-05T07:33:24.873Z,8.20
2023-05-05T07:35:29.549Z,6.73
2023-05-05T07:37:32.302Z,8.13
2023-05-05T07:39:35.333Z,7.50
2023-05-05T07:41:38.170Z,7.63
2023-05-05T07:43:44.190Z,7.73
2023-05-05T07:45:47.557Z,7.30
2023-05-05T07:47:50.679Z,6.97
2023-05-05T07:49:53.524Z,6.93
2023-05-05T07:51:57.630Z,7.83
2023-05-05T07:54:00.611Z,7.80
2023-05-05T07:56:03.376Z,8.10
2023-05-05T07:58:06.165Z,7.67
2023-05-05T08:00:10.858Z,8.43
2023-05-05T08:02:14.328Z,9.00
2023-05-05T08:04:17.215Z,7.30
2023-05-05T08:06:22.397Z,7.67
2023-05-05T08:08:27.031Z,6.50
2023-05-05T08:10:29.919Z,7.67
2023-05-05T08:12:32.709Z,8.43
2023-05-05T08:14:35.620Z,7.93
2023-05-05T08:16:38.432Z,7.60
2023-05-05T08:18:41.248Z,6.70
2023-05-05T08:20:44.170Z,7.07
2023-05-05T08:22:47.141Z,7.87
2023-05-05T08:24:51.556Z,7.50
2023-05-05T08:26:55.599Z,7.50
2023-05-05T08:29:00.816Z,7.07
2023-05-05T08:31:05.489Z,7.93
2023-05-05T08:33:08.370Z,7.90
2023-05-05T08:35:12.020Z,7.53
2023-05-05T08:37:15.102Z,8.60
2023-05-05T08:39:17.976Z,8.40
2023-05-05T08:41:22.134Z,8.30
2023-05-05T08:43:24.964Z,8.50
2023-05-05T08:45:27.840Z,8.60
2023-05-05T08:47:32.154Z,8.37
2023-05-05T08:49:39.736Z,8.27
2023-05-05T08:51:44.254Z,9.00
2023-05-05T08:53:49.949Z,14.67
2023-05-05T08:55:53.256Z,29.53
2023-05-05T08:57:58.323Z,10.70
2023-05-05T09:00:01.406Z,9.80
2023-05-05T09:02:04.281Z,8.67
2023-05-05T09:04:08.439Z,7.60
2023-05-05T09:06:11.200Z,8.60
2023-05-05T09:08:14.032Z,7.30
2023-05-05T09:10:16.784Z,8.53
2023-05-05T09:12:19.662Z,8.00
2023-05-05T09:14:23.798Z,8.70
2023-05-05T09:16:26.739Z,8.20
2023-05-05T09:18:30.069Z,8.70
2023-05-05T09:20:34.860Z,8.10
2023-05-05T09:22:38.392Z,8.30
2023-05-05T09:24:43.692Z,8.87
2023-05-05T09:26:47.701Z,9.20
2023-05-05T09:28:52.919Z,8.50
2023-05-05T09:30:57.258Z,8.80
2023-05-05T09:33:02.158Z,8.90
2023-05-05T09:35:05.557Z,9.00
2023-05-05T09:37:08.356Z,9.77
2023-05-05T09:39:11.222Z,8.73
2023-05-05T09:41:15.427Z,8.60
2023-05-05T09:43:18.512Z,35.70
2023-05-05T09:45:27.943Z,13.10
2023-05-05T09:47:38.255Z,9.27
2023-05-05T09:49:41.042Z,8.63
2023-05-05T09:51:43.806Z,9.30
2023-05-05T09:53:46.604Z,8.50
2023-05-05T09:55:56.062Z,9.03
2023-05-05T09:57:58.883Z,9.23
2023-05-05T10:00:02.346Z,9.10
2023-05-05T10:02:12.656Z,8.47
2023-05-05T10:04:28.026Z,8.93
2023-05-05T10:06:44.715Z,8.20
2023-05-05T10:08:47.513Z,8.33
2023-05-05T10:10:54.120Z,8.87
2023-05-05T10:12:58.584Z,8.20
2023-05-05T10:15:02.351Z,8.97
2023-05-05T10:17:05.121Z,9.90
2023-05-05T10:19:07.897Z,9.90
2023-05-05T10:21:12.062Z,10.30
2023-05-05T10:23:16.292Z,9.93
2023-05-05T10:25:19.614Z,9.40
2023-05-05T10:27:23.316Z,9.07
2023-05-05T10:29:37.818Z,9.33
2023-05-05T10:31:42.997Z,20.77
2023-05-05T10:33:49.097Z,10.90
2023-05-05T10:35:53.809Z,9.37
2023-05-05T10:37:58.015Z,11.60
2023-05-05T10:40:00.827Z,10.50
2023-05-05T10:42:03.622Z,9.93
2023-05-05T10:44:06.731Z,10.17
2023-05-05T10:46:09.579Z,9.87
2023-05-05T10:48:15.660Z,9.47
2023-05-05T10:50:21.858Z,10.33
2023-05-05T10:52:28.945Z,9.90
2023-05-05T10:54:37.836Z,9.27
2023-05-05T10:56:41.409Z,9.97
2023-05-05T10:58:59.237Z,10.00
2023-05-05T11:01:02.741Z,10.90
2023-05-05T11:03:21.155Z,10.67
2023-05-05T11:05:24.260Z,10.27
2023-05-05T11:07:27.446Z,10.57
2023-05-05T11:09:30.540Z,9.60
2023-05-05T11:12:04.688Z,9.47
2023-05-05T11:14:21.236Z,10.53
2023-05-05T11:16:44.224Z,9.80
2023-05-05T11:18:47.058Z,9.70
2023-05-05T11:21:09.018Z,10.60
2023-05-05T11:23:23.889Z,10.53
2023-05-05T11:25:47.171Z,10.30
2023-05-05T11:28:06.691Z,9.87
2023-05-05T11:30:10.623Z,10.97
2023-05-05T11:32:13.794Z,10.50
2023-05-05T11:34:27.774Z,10.23
2023-05-05T11:36:40.721Z,11.77
2023-05-05T11:39:07.727Z,11.07
2023-05-05T11:41:13.197Z,12.10
2023-05-05T11:43:19.501Z,11.60
2023-05-05T11:45:23.339Z,12.00
2023-05-05T11:47:33.357Z,11.03
2023-05-05T11:49:36.836Z,11.37
2023-05-05T11:51:39.593Z,13.00
2023-05-05T11:53:46.004Z,12.30
2023-05-05T11:55:49.146Z,13.07
2023-05-05T11:57:51.977Z,12.37
2023-05-05T11:59:57.140Z,11.23
2023-05-05T12:01:59.971Z,12.67
2023-05-05T12:04:03.325Z,13.20
2023-05-05T12:06:06.646Z,12.23
2023-05-05T12:08:10.277Z,12.87
2023-05-05T12:10:13.098Z,11.23
2023-05-05T12:12:16.245Z,12.97
2023-05-05T12:14:19.027Z,12.27
2023-05-05T12:16:23.160Z,12.97
2023-05-05T12:18:25.903Z,11.37
2023-05-05T12:20:33.212Z,13.07
2023-05-05T12:22:36.182Z,12.60
2023-05-05T12:24:38.986Z,10.90
2023-05-05T12:26:41.835Z,12.73
2023-05-05T12:28:46.326Z,11.63
2023-05-05T12:30:57.690Z,12.20
2023-05-05T12:33:05.204Z,10.50
2023-05-05T12:35:08.868Z,12.03
2023-05-05T12:37:11.699Z,13.83
2023-05-05T12:39:14.499Z,12.83
2023-05-05T12:41:19.976Z,12.60
2023-05-05T12:43:27.157Z,13.40
2023-05-05T12:45:29.982Z,13.57
2023-05-05T12:47:33.416Z,12.40
2023-05-05T12:49:47.859Z,12.70
2023-05-05T12:51:54.179Z,12.60
2023-05-05T12:54:04.004Z,13.07
2023-05-05T12:56:07.029Z,12.23
2023-05-05T12:58:09.807Z,13.07
2023-05-05T13:00:16.657Z,11.43
2023-05-05T13:02:19.538Z,11.73
2023-05-05T13:04:23.108Z,12.80
2023-05-05T13:06:28.329Z,12.20
2023-05-05T13:08:43.289Z,13.27
2023-05-05T13:10:58.864Z,13.60
2023-05-05T13:13:01.656Z,12.60
2023-05-05T13:15:04.790Z,12.70
2023-05-05T13:17:07.579Z,12.30
2023-05-05T13:19:10.505Z,12.47
2023-05-05T13:21:13.335Z,11.67
2023-05-05T13:23:17.444Z,12.17
2023-05-05T13:25:20.262Z,11.83
2023-05-05T13:27:23.616Z,13.03
2023-05-05T13:29:30.380Z,11.80
2023-05-05T13:31:34.270Z,12.57
2023-05-05T13:33:37.062Z,11.33
2023-05-05T13:35:39.856Z,12.88
2023-05-05T13:37:44.241Z,12.83
2023-05-05T13:39:48.385Z,11.83
2023-05-05T13:41:51.165Z,11.53
2023-05-05T13:43:53.949Z,11.43
2023-05-05T13:46:02.958Z,11.50
2023-05-05T13:48:11.685Z,10.20
2023-05-05T13:50:14.440Z,9.60
2023-05-05T13:52:18.084Z,10.20
2023-05-05T13:54:21.141Z,11.40
2023-05-05T13:56:27.648Z,10.43
2023-05-05T13:58:30.464Z,9.87
2023-05-05T14:00:34.623Z,10.40
2023-05-05T14:02:37.485Z,10.37
2023-05-05T14:04:41.378Z,10.07
2023-05-05T14:06:44.246Z,9.70
2023-05-05T14:08:47.121Z,10.20
2023-05-05T14:10:52.015Z,10.13
2023-05-05T14:12:56.495Z,11.10
2023-05-05T14:14:59.590Z,10.87
2023-05-05T14:17:02.425Z,10.40
2023-05-05T14:19:05.276Z,10.60
2023-05-05T14:21:08.094Z,10.50
2023-05-05T14:23:10.916Z,11.70
2023-05-05T14:25:13.704Z,10.30
2023-05-05T14:27:16.478Z,12.00
2023-05-05T14:29:20.617Z,10.60
2023-05-05T14:31:23.703Z,9.97
2023-05-05T14:33:26.566Z,10.00
2023-05-05T14:35:29.384Z,10.17
2023-05-05T14:37:32.396Z,11.00
2023-05-05T14:39:35.264Z,11.60
2023-05-05T14:41:38.061Z,10.80
2023-05-05T14:43:40.954Z,10.73
2023-05-05T14:45:45.185Z,12.47
2023-05-05T14:47:48.052Z,11.97
2023-05-05T14:49:50.861Z,11.17
2023-05-05T14:51:55.458Z,10.43
2023-05-05T14:53:59.462Z,10.10
2023-05-05T14:56:02.303Z,10.90
2023-05-05T14:58:05.095Z,11.73
2023-05-05T15:00:09.391Z,11.63
2023-05-05T15:02:13.538Z,10.40
2023-05-05T15:04:16.588Z,12.27
2023-05-05T15:06:19.428Z,11.20
2023-05-05T15:08:22.207Z,11.97
2023-05-05T15:10:25.193Z,11.50
2023-05-05T15:12:27.989Z,11.37
2023-05-05T15:14:30.754Z,10.93
2023-05-05T15:16:35.224Z,12.97
2023-05-05T15:18:39.615Z,11.50
2023-05-05T15:20:42.439Z,11.30
2023-05-05T15:22:45.205Z,12.20
2023-05-05T15:24:47.990Z,12.40
2023-05-05T15:26:50.792Z,13.33
2023-05-05T15:28:53.556Z,11.80
2023-05-05T15:30:56.379Z,12.60
2023-05-05T15:32:59.182Z,11.90
2023-05-05T15:35:03.322Z,12.80
2023-05-05T15:37:06.112Z,12.17
2023-05-05T15:39:09.104Z,13.70
2023-05-05T15:41:11.862Z,13.30
2023-05-05T15:43:14.685Z,13.37
2023-05-05T15:45:17.734Z,13.27
2023-05-05T15:47:20.492Z,13.70
2023-05-05T15:49:23.263Z,12.93
2023-05-05T15:51:27.425Z,14.37
2023-05-05T15:53:30.366Z,15.13
2023-05-05T15:55:33.159Z,16.33
2023-05-05T15:57:36.004Z,14.20
2023-05-05T15:59:38.806Z,14.97
2023-05-05T16:01:41.653Z,14.77
2023-05-05T16:03:44.534Z,15.10
2023-05-05T16:05:48.071Z,17.43
2023-05-05T16:07:53.601Z,17.30
2023-05-05T16:09:57.394Z,16.03
2023-05-05T16:12:00.173Z,17.50
2023-05-05T16:14:02.947Z,17.90
2023-05-05T16:16:06.267Z,18.13
2023-05-05T16:18:09.050Z,18.77
2023-05-05T16:20:12.854Z,14.13
2023-05-05T16:22:15.646Z,10.93
2023-05-05T16:24:19.755Z,7.17
2023-05-05T16:26:22.561Z,6.90
2023-05-05T16:28:25.370Z,6.73
2023-05-05T16:30:29.219Z,6.73
2023-05-05T16:32:32.442Z,5.40
2023-05-05T16:34:35.320Z,5.80
2023-05-05T16:36:38.187Z,4.60
2023-05-05T16:38:41.170Z,4.77
2023-05-05T16:40:45.296Z,5.10
2023-05-05T16:42:48.056Z,4.40
2023-05-05T16:44:50.825Z,4.40
2023-05-05T16:46:53.587Z,4.77
2023-05-05T16:48:56.371Z,3.93
2023-05-05T16:50:59.150Z,3.90
2023-05-05T16:53:01.939Z,3.40
2023-05-05T16:55:05.180Z,3.43
2023-05-05T16:57:09.303Z,3.83
2023-05-05T16:59:12.123Z,3.83
2023-05-05T17:01:14.908Z,3.30
2023-05-05T17:03:17.782Z,2.73
2023-05-05T17:05:21.406Z,2.33
2023-05-05T17:07:24.271Z,2.70
2023-05-05T17:09:27.448Z,2.97
2023-05-05T17:11:30.207Z,3.60
2023-05-05T17:13:34.335Z,2.63
2023-05-05T17:15:37.391Z,3.00
2023-05-05T17:17:41.644Z,2.80
2023-05-05T17:19:46.003Z,2.80
2023-05-05T17:21:48.937Z,3.20
2023-05-05T17:23:51.705Z,3.17
2023-05-05T17:25:54.526Z,3.13
2023-05-05T17:27:57.327Z,2.70
2023-05-05T17:30:01.439Z,3.53
2023-05-05T17:32:04.468Z,3.40
2023-05-05T17:34:07.329Z,3.33
2023-05-05T17:36:10.651Z,3.40
2023-05-05T17:38:13.456Z,3.50
2023-05-05T17:40:16.232Z,4.00
2023-05-05T17:42:22.839Z,3.50
2023-05-05T17:44:25.682Z,4.60
2023-05-05T17:46:30.268Z,3.80
2023-05-05T17:48:33.137Z,4.10
2023-05-05T17:50:36.020Z,4.50
2023-05-05T17:52:40.341Z,3.47
2023-05-05T17:54:43.472Z,3.93
2023-05-05T17:56:46.873Z,4.03
2023-05-05T17:58:49.798Z,4.00
2023-05-05T18:00:52.597Z,4.30
2023-05-05T18:02:56.852Z,3.83
2023-05-05T18:04:59.673Z,4.50
2023-05-05T18:07:02.428Z,4.40
2023-05-05T18:09:05.209Z,4.57
2023-05-05T18:11:08.002Z,4.70
2023-05-05T18:13:10.854Z,6.30
2023-05-05T18:15:13.637Z,4.80
2023-05-05T18:17:16.506Z,5.57
2023-05-05T18:19:21.526Z,5.07
2023-05-05T18:21:24.299Z,6.73
2023-05-05T18:23:27.179Z,7.50
2023-05-05T18:25:29.988Z,7.13
2023-05-05T18:27:33.369Z,7.37
2023-05-05T18:29:36.674Z,6.47
2023-05-05T18:31:39.511Z,7.50
2023-05-05T18:33:42.303Z,5.37
2023-05-05T18:35:46.433Z,5.37
2023-05-05T18:37:49.765Z,4.43
2023-05-05T18:39:52.548Z,4.83
2023-05-05T18:41:55.459Z,4.80
2023-05-05T18:43:58.237Z,4.80
2023-05-05T18:46:01.049Z,4.90
2023-05-05T18:48:03.848Z,4.60
2023-05-05T18:50:08.132Z,4.60
2023-05-05T18:52:12.258Z,4.50
2023-05-05T18:54:15.028Z,5.00
2023-05-05T18:56:17.818Z,5.20
2023-05-05T18:58:21.263Z,6.50
2023-05-05T19:00:24.536Z,5.87
2023-05-05T19:02:27.377Z,5.83
2023-05-05T19:04:31.641Z,5.10
2023-05-05T19:06:34.705Z,6.33
2023-05-05T19:08:38.827Z,6.33
2023-05-05T19:10:41.602Z,5.47
2023-05-05T19:12:44.403Z,5.87
2023-05-05T19:14:47.226Z,5.87
2023-05-05T19:16:50.050Z,6.07
2023-05-05T19:18:54.492Z,5.50
2023-05-05T19:20:57.259Z,5.33
2023-05-05T19:23:03.703Z,5.77
2023-05-05T19:25:08.936Z,5.67
2023-05-05T19:27:15.449Z,5.13
2023-05-05T19:29:19.115Z,6.47
2023-05-05T19:31:22.369Z,5.00
2023-05-05T19:33:25.658Z,6.10
2023-05-05T19:35:28.762Z,5.97
2023-05-05T19:37:31.599Z,5.97
2023-05-05T19:39:34.353Z,5.67
2023-05-05T19:41:38.511Z,5.90
2023-05-05T19:43:41.326Z,6.23
2023-05-05T19:45:44.136Z,6.00
2023-05-05T19:47:47.061Z,6.30
2023-05-05T19:49:49.850Z,6.40
2023-05-05T19:51:54.314Z,5.60
2023-05-05T19:53:57.083Z,7.33
2023-05-05T19:55:59.867Z,6.70
2023-05-05T19:58:03.978Z,6.83
2023-05-05T20:00:08.220Z,5.50
2023-05-05T20:02:12.111Z,6.50
2023-05-05T20:04:14.923Z,7.00
2023-05-05T20:06:17.739Z,6.40
2023-05-05T20:08:20.721Z,7.00
2023-05-05T20:10:23.983Z,7.00
2023-05-05T20:12:26.754Z,8.10
2023-05-05T20:14:30.861Z,7.50
2023-05-05T20:16:33.756Z,7.50
2023-05-05T20:18:36.667Z,9.00
2023-05-05T20:20:39.434Z,7.97
2023-05-05T20:22:42.194Z,8.67
2023-05-05T20:24:44.993Z,8.50
2023-05-05T20:26:47.784Z,8.00
2023-05-05T20:28:50.593Z,8.73
2023-05-05T20:30:54.693Z,9.07
2023-05-05T20:32:58.049Z,9.40
2023-05-05T20:35:01.054Z,9.60
2023-05-05T20:37:03.870Z,10.40
2023-05-05T20:39:07.419Z,9.90
2023-05-05T20:41:10.359Z,9.50
2023-05-05T20:43:14.188Z,9.87
2023-05-05T20:45:17.065Z,8.90
2023-05-05T20:47:21.251Z,9.63
2023-05-05T20:49:24.018Z,9.27
2023-05-05T20:51:31.413Z,9.17
2023-05-05T20:53:34.293Z,9.87
2023-05-05T20:55:37.068Z,8.50
2023-05-05T20:57:39.852Z,10.87
2023-05-05T20:59:42.707Z,11.07
2023-05-05T21:01:45.739Z,12.27
2023-05-05T21:03:49.925Z,11.83
2023-05-05T21:05:52.706Z,12.63
2023-05-05T21:07:55.522Z,13.43
2023-05-05T21:09:58.562Z,13.07
2023-05-05T21:12:01.336Z,13.60
2023-05-05T21:14:05.026Z,16.87
2023-05-05T21:16:07.962Z,14.87
2023-05-05T21:18:10.819Z,16.93
2023-05-05T21:20:16.390Z,15.63
2023-05-05T21:22:19.167Z,16.20
2023-05-05T21:24:22.133Z,17.50
2023-05-05T21:26:25.884Z,17.73
2023-05-05T21:28:28.756Z,18.80
2023-05-05T21:30:31.558Z,20.47
2023-05-05T21:32:34.391Z,19.30
2023-05-05T21:34:37.397Z,19.50
2023-05-05T21:36:41.494Z,20.27
2023-05-05T21:38:44.322Z,19.80
2023-05-05T21:40:47.125Z,20.63
2023-05-05T21:42:49.912Z,21.30
2023-05-05T21:44:52.676Z,24.30
2023-05-05T21:46:55.552Z,20.70
2023-05-05T21:48:58.315Z,22.00
2023-05-05T21:51:01.131Z,19.67
2023-05-05T21:53:05.354Z,20.07
2023-05-05T21:55:11.086Z,21.20
2023-05-05T21:57:13.895Z,20.60
2023-05-05T21:59:17.353Z,19.67
2023-05-05T22:01:20.284Z,19.37
2023-05-05T22:03:23.191Z,21.87
2023-05-05T22:05:26.120Z,17.73
2023-05-05T22:07:29.961Z,18.23
2023-05-05T22:09:35.083Z,19.50
2023-05-05T22:11:37.888Z,16.77
2023-05-05T22:13:40.908Z,19.50
2023-05-05T22:15:47.138Z,20.73
2023-05-05T22:17:50.448Z,17.73
2023-05-05T22:19:53.257Z,18.57
2023-05-05T22:21:56.047Z,19.87
2023-05-05T22:23:58.840Z,21.90
2023-05-05T22:26:03.183Z,19.60
2023-05-05T22:28:05.981Z,22.37
2023-05-05T22:30:09.958Z,22.37
2023-05-05T22:32:12.706Z,22.57
2023-05-05T22:34:15.518Z,20.63
2023-05-05T22:36:18.270Z,21.27
2023-05-05T22:38:21.116Z,21.40
2023-05-05T22:40:23.890Z,21.30
2023-05-05T22:42:28.019Z,20.50
2023-05-05T22:44:30.807Z,20.80
2023-05-05T22:46:33.636Z,23.27
2023-05-05T22:48:36.429Z,22.13
2023-05-05T22:50:39.211Z,21.47
2023-05-05T22:52:42.008Z,22.33
2023-05-05T22:54:44.794Z,21.33
2023-05-05T22:56:47.719Z,21.30
2023-05-05T22:58:51.839Z,21.73
2023-05-05T23:00:54.651Z,23.10
2023-05-05T23:02:57.549Z,22.20
2023-05-05T23:05:00.332Z,19.57
2023-05-05T23:07:03.097Z,18.80
2023-05-05T23:09:05.870Z,19.13
2023-05-05T23:11:08.689Z,18.40
2023-05-05T23:13:11.468Z,18.10
2023-05-05T23:15:15.771Z,19.27
2023-05-05T23:17:18.580Z,17.80
2023-05-05T23:19:21.382Z,19.70
2023-05-05T23:21:24.193Z,19.40
2023-05-05T23:23:26.950Z,20.87
2023-05-05T23:25:29.741Z,22.60
2023-05-05T23:27:32.539Z,24.30
2023-05-05T23:29:35.333Z,25.97
2023-05-05T23:31:39.457Z,25.30
2023-05-05T23:33:42.251Z,25.60
2023-05-05T23:35:45.591Z,25.63
2023-05-05T23:37:48.349Z,25.47
2023-05-05T23:39:51.134Z,25.30
2023-05-05T23:41:53.902Z,26.30
2023-05-05T23:43:57.445Z,24.20
2023-05-05T23:46:00.234Z,24.30
2023-05-05T23:48:04.668Z,24.60
2023-05-05T23:50:08.815Z,24.40
2023-05-05T23:52:12.013Z,26.13
2023-05-05T23:54:14.793Z,23.33
2023-05-05T23:56:17.564Z,22.53
2023-05-05T23:58:20.930Z,24.60
